createdAt,value
2022-11-10T00:01:09.861Z,1.23
2022-11-10T00:03:37.766Z,1.40
2022-11-10T00:06:09.446Z,1.93
2022-11-10T00:08:36.737Z,3.20
2022-11-10T00:11:06.509Z,2.00
2022-11-10T00:13:35.818Z,1.40
2022-11-10T00:16:22.983Z,2.93
2022-11-10T00:18:50.592Z,3.93
2022-11-10T00:21:18.790Z,1.40
2022-11-10T00:23:49.899Z,1.50
2022-11-10T00:26:18.911Z,1.60
2022-11-10T00:28:46.373Z,1.40
2022-11-10T00:31:14.114Z,1.40
2022-11-10T00:33:42.419Z,1.50
2022-11-10T00:36:09.853Z,1.77
2022-11-10T00:38:37.066Z,1.60
2022-11-10T00:41:04.867Z,2.30
2022-11-10T00:43:32.756Z,1.63
2022-11-10T00:46:00.795Z,1.90
2022-11-10T00:48:28.058Z,1.43
2022-11-10T00:50:55.506Z,1.57
2022-11-10T00:53:23.159Z,1.60
2022-11-10T00:55:50.756Z,1.37
2022-11-10T00:58:17.970Z,1.47
2022-11-10T01:00:45.564Z,1.40
2022-11-10T01:03:16.756Z,1.50
2022-11-10T01:05:44.694Z,1.50
2022-11-10T01:08:12.283Z,1.70
2022-11-10T01:10:39.832Z,1.50
2022-11-10T01:13:07.123Z,1.40
2022-11-10T01:15:34.733Z,1.70
2022-11-10T01:18:02.066Z,1.33
2022-11-10T01:20:29.400Z,1.40
2022-11-10T01:22:57.558Z,1.77
2022-11-10T01:25:24.817Z,6.60
2022-11-10T01:27:52.652Z,1.77
2022-11-10T01:30:20.484Z,2.70
2022-11-10T01:32:48.839Z,5.03
2022-11-10T01:35:16.126Z,2.90
2022-11-10T01:37:43.756Z,4.17
2022-11-10T01:40:11.420Z,2.00
2022-11-10T01:42:43.665Z,1.37
2022-11-10T01:45:23.256Z,1.70
2022-11-10T01:48:06.726Z,3.97
2022-11-10T01:50:36.025Z,1.70
2022-11-10T01:53:04.410Z,1.90
2022-11-10T01:55:32.055Z,1.70
2022-11-10T01:57:59.621Z,1.60
2022-11-10T02:00:26.923Z,1.87
2022-11-10T02:03:15.676Z,2.00
2022-11-10T02:05:44.684Z,1.90
2022-11-10T02:08:15.767Z,1.80
2022-11-10T02:10:43.380Z,2.53
2022-11-10T02:13:11.804Z,5.40
2022-11-10T02:15:39.168Z,3.93
2022-11-10T02:18:06.759Z,2.60
2022-11-10T02:20:34.076Z,2.20
2022-11-10T02:23:12.031Z,2.20
2022-11-10T02:25:39.372Z,2.00
2022-11-10T02:28:06.843Z,2.73
2022-11-10T02:30:34.110Z,2.13
2022-11-10T02:33:02.979Z,2.80
2022-11-10T02:35:30.512Z,2.40
2022-11-10T02:37:57.805Z,4.63
2022-11-10T02:40:25.062Z,2.57
2022-11-10T02:42:52.257Z,2.00
2022-11-10T02:45:19.505Z,1.93
2022-11-10T02:47:46.856Z,1.97
2022-11-10T02:50:14.170Z,2.10
2022-11-10T02:52:42.184Z,2.40
2022-11-10T02:55:10.068Z,2.27
2022-11-10T02:57:38.759Z,2.73
2022-11-10T03:00:07.087Z,2.27
2022-11-10T03:02:34.374Z,2.40
2022-11-10T03:05:01.655Z,2.20
2022-11-10T03:07:28.949Z,2.10
2022-11-10T03:09:56.390Z,2.23
2022-11-10T03:12:23.618Z,2.33
2022-11-10T03:14:51.939Z,1.97
2022-11-10T03:17:19.210Z,2.10
2022-11-10T03:19:46.678Z,2.47
2022-11-10T03:22:15.027Z,2.27
2022-11-10T03:24:42.256Z,1.90
2022-11-10T03:27:09.828Z,2.27
2022-11-10T03:29:37.280Z,1.90
2022-11-10T03:32:04.488Z,1.80
2022-11-10T03:34:32.081Z,1.90
2022-11-10T03:37:00.663Z,1.77
2022-11-10T03:39:27.936Z,2.00
2022-11-10T03:41:55.229Z,2.13
2022-11-10T03:44:22.518Z,1.80
2022-11-10T03:46:51.737Z,2.00
2022-11-10T03:49:19.160Z,1.63
2022-11-10T03:51:47.648Z,1.80
2022-11-10T03:54:15.195Z,2.00
2022-11-10T03:56:42.527Z,1.80
2022-11-10T03:59:09.784Z,1.97
2022-11-10T04:01:37.170Z,2.00
2022-11-10T04:04:04.538Z,1.83
2022-11-10T04:06:50.460Z,1.97
2022-11-10T04:09:17.931Z,1.70
2022-11-10T04:12:04.412Z,2.00
2022-11-10T04:14:50.481Z,1.53
2022-11-10T04:17:18.054Z,2.27
2022-11-10T04:19:45.237Z,2.37
2022-11-10T04:22:32.449Z,2.60
2022-11-10T04:24:59.700Z,3.20
2022-11-10T04:27:27.142Z,3.23
2022-11-10T04:29:54.378Z,3.10
2022-11-10T04:32:24.910Z,2.97
2022-11-10T04:34:52.282Z,2.10
2022-11-10T04:37:19.566Z,2.00
2022-11-10T04:39:46.763Z,1.80
2022-11-10T04:42:14.339Z,1.90
2022-11-10T04:44:41.546Z,2.20
2022-11-10T04:47:11.822Z,2.43
2022-11-10T04:49:39.398Z,4.30
2022-11-10T04:52:06.796Z,4.53
2022-11-10T04:54:34.059Z,4.17
2022-11-10T04:57:01.455Z,2.40
2022-11-10T04:59:28.848Z,3.90
2022-11-10T05:01:56.261Z,3.27
2022-11-10T05:04:23.587Z,1.90
2022-11-10T05:06:51.039Z,3.83
2022-11-10T05:09:18.667Z,5.50
2022-11-10T05:11:45.872Z,4.20
2022-11-10T05:14:13.190Z,3.80
2022-11-10T05:16:40.447Z,3.00
2022-11-10T05:19:07.808Z,7.70
2022-11-10T05:21:35.073Z,11.13
2022-11-10T05:24:02.447Z,13.30
2022-11-10T05:26:29.783Z,9.23
2022-11-10T05:28:57.139Z,6.60
2022-11-10T05:31:26.106Z,6.70
2022-11-10T05:33:53.548Z,7.70
2022-11-10T05:36:20.793Z,7.10
2022-11-10T05:38:48.062Z,6.90
2022-11-10T05:41:15.423Z,7.23
2022-11-10T05:43:42.628Z,7.10
2022-11-10T05:46:10.220Z,7.93
2022-11-10T05:48:37.571Z,6.63
2022-11-10T05:51:05.052Z,5.97
2022-11-10T05:53:32.537Z,4.70
2022-11-10T05:56:00.936Z,3.93
2022-11-10T05:58:28.216Z,3.33
2022-11-10T06:00:55.522Z,3.47
2022-11-10T06:03:23.133Z,3.70
2022-11-10T06:05:50.687Z,4.80
2022-11-10T06:08:18.174Z,3.70
2022-11-10T06:10:45.475Z,4.30
2022-11-10T06:13:12.991Z,4.57
2022-11-10T06:15:40.378Z,5.33
2022-11-10T06:18:10.424Z,5.70
2022-11-10T06:20:38.038Z,5.00
2022-11-10T06:23:06.708Z,4.40
2022-11-10T06:25:35.519Z,3.97
2022-11-10T06:28:03.162Z,4.30
2022-11-10T06:30:32.172Z,3.83
2022-11-10T06:32:59.470Z,3.20
2022-11-10T06:35:27.478Z,3.20
2022-11-10T06:37:58.627Z,3.20
2022-11-10T06:40:25.872Z,2.90
2022-11-10T06:42:53.419Z,3.23
2022-11-10T06:45:20.852Z,7.40
2022-11-10T06:47:48.292Z,8.27
2022-11-10T06:50:15.732Z,7.63
2022-11-10T06:52:42.985Z,5.07
2022-11-10T06:55:10.291Z,3.77
2022-11-10T06:57:39.054Z,2.90
2022-11-10T07:00:06.800Z,3.13
2022-11-10T07:02:34.051Z,3.33
2022-11-10T07:05:01.386Z,2.37
2022-11-10T07:07:28.676Z,3.00
2022-11-10T07:09:56.052Z,2.27
2022-11-10T07:12:23.330Z,1.80
2022-11-10T07:14:50.497Z,1.80
2022-11-10T07:17:18.130Z,1.83
2022-11-10T07:19:45.640Z,2.00
2022-11-10T07:22:12.910Z,2.10
2022-11-10T07:24:40.242Z,4.03
2022-11-10T07:27:08.398Z,7.50
2022-11-10T07:29:35.679Z,7.50
2022-11-10T07:32:03.337Z,5.43
2022-11-10T07:34:30.623Z,5.00
2022-11-10T07:36:57.848Z,7.13
2022-11-10T07:39:25.138Z,7.23
2022-11-10T07:41:53.046Z,7.00
2022-11-10T07:44:20.390Z,6.50
2022-11-10T07:46:47.701Z,5.73
2022-11-10T07:49:14.963Z,6.17
2022-11-10T07:51:43.243Z,5.87
2022-11-10T07:54:10.724Z,5.83
2022-11-10T07:56:38.118Z,5.67
2022-11-10T07:59:05.771Z,4.57
2022-11-10T08:01:34.149Z,4.13
2022-11-10T08:04:01.442Z,3.27
2022-11-10T08:06:31.124Z,3.20
2022-11-10T08:09:02.285Z,3.00
2022-11-10T08:11:29.540Z,2.67
2022-11-10T08:13:56.791Z,2.47
2022-11-10T08:16:24.487Z,9.47
2022-11-10T08:18:51.962Z,10.20
2022-11-10T08:21:19.325Z,8.57
2022-11-10T08:23:46.558Z,4.20
2022-11-10T08:26:16.638Z,2.90
2022-11-10T08:28:44.545Z,2.87
2022-11-10T08:31:11.810Z,2.83
2022-11-10T08:33:39.132Z,2.87
2022-11-10T08:36:06.508Z,2.57
2022-11-10T08:38:33.717Z,3.13
2022-11-10T08:41:01.282Z,2.70
2022-11-10T08:43:28.614Z,2.70
2022-11-10T08:46:01.602Z,3.10
2022-11-10T08:48:28.922Z,2.90
2022-11-10T08:50:56.446Z,2.80
2022-11-10T08:53:24.751Z,2.60
2022-11-10T08:55:53.396Z,2.23
2022-11-10T08:58:22.154Z,1.60
2022-11-10T09:00:49.894Z,1.80
2022-11-10T09:03:19.336Z,2.07
2022-11-10T09:05:47.119Z,1.83
2022-11-10T09:08:14.571Z,2.33
2022-11-10T09:10:46.580Z,1.80
2022-11-10T09:13:15.382Z,1.40
2022-11-10T09:15:43.665Z,1.57
2022-11-10T09:18:12.326Z,1.83
2022-11-10T09:20:39.702Z,1.40
2022-11-10T09:23:07.887Z,2.10
2022-11-10T09:25:35.273Z,1.20
2022-11-10T09:28:02.893Z,1.47
2022-11-10T09:30:31.984Z,1.80
2022-11-10T09:33:00.454Z,1.50
2022-11-10T09:35:28.426Z,1.20
2022-11-10T09:37:55.723Z,1.40
2022-11-10T09:40:50.715Z,1.80
2022-11-10T09:43:24.621Z,1.80
2022-11-10T09:45:54.868Z,1.67
2022-11-10T09:48:25.725Z,1.57
2022-11-10T09:50:53.041Z,1.43
2022-11-10T09:53:25.845Z,2.33
2022-11-10T09:55:55.976Z,1.63
2022-11-10T09:58:24.979Z,1.37
2022-11-10T10:00:57.762Z,1.10
2022-11-10T10:03:27.680Z,1.30
2022-11-10T10:05:54.974Z,1.33
2022-11-10T10:08:32.500Z,1.80
2022-11-10T10:11:06.022Z,1.60
2022-11-10T10:13:51.823Z,1.23
2022-11-10T10:16:37.149Z,1.43
2022-11-10T10:19:21.560Z,1.20
2022-11-10T10:22:04.057Z,0.93
2022-11-10T10:24:33.469Z,1.05
2022-11-10T10:27:02.361Z,1.08
2022-11-10T10:29:37.194Z,1.02
2022-11-10T10:32:05.714Z,1.17
2022-11-10T10:34:34.650Z,1.20
2022-11-10T10:37:02.175Z,1.17
2022-11-10T10:39:30.472Z,1.30
2022-11-10T10:41:57.984Z,2.03
2022-11-10T10:44:25.340Z,1.33
2022-11-10T10:47:03.074Z,2.00
2022-11-10T10:49:31.657Z,2.73
2022-11-10T10:52:26.759Z,6.07
2022-11-10T10:55:01.501Z,1.80
2022-11-10T10:57:30.109Z,1.50
2022-11-10T11:00:12.701Z,1.27
2022-11-10T11:02:40.749Z,1.30
2022-11-10T11:05:19.235Z,1.30
2022-11-10T11:08:00.060Z,1.60
2022-11-10T11:10:29.115Z,1.10
2022-11-10T11:12:56.528Z,1.10
2022-11-10T11:15:25.913Z,1.47
2022-11-10T11:18:00.891Z,1.10
2022-11-10T11:20:39.568Z,1.47
2022-11-10T11:23:09.938Z,2.00
2022-11-10T11:25:39.585Z,1.47
2022-11-10T11:28:07.006Z,1.23
2022-11-10T11:30:43.649Z,1.10
2022-11-10T11:33:30.537Z,1.35
2022-11-10T11:36:27.010Z,1.05
2022-11-10T11:38:57.285Z,0.85
2022-11-10T11:41:34.990Z,1.20
2022-11-10T11:44:05.491Z,1.00
2022-11-10T11:46:51.671Z,0.90
2022-11-10T11:49:18.969Z,0.88
2022-11-10T11:51:46.180Z,1.20
2022-11-10T11:54:20.703Z,0.77
2022-11-10T11:56:50.133Z,0.98
2022-11-10T11:59:20.930Z,1.50
2022-11-10T12:01:51.351Z,1.08
2022-11-10T12:04:27.708Z,1.02
2022-11-10T12:07:10.721Z,0.88
2022-11-10T12:09:44.291Z,0.95
2022-11-10T12:12:14.598Z,1.08
2022-11-10T12:15:00.386Z,0.68
2022-11-10T12:17:30.871Z,1.10
2022-11-10T12:20:14.532Z,0.90
2022-11-10T12:22:48.090Z,0.82
2022-11-10T12:25:24.522Z,1.10
2022-11-10T12:27:55.997Z,1.02
2022-11-10T12:30:23.313Z,1.10
2022-11-10T12:32:50.773Z,1.00
2022-11-10T12:35:22.912Z,1.23
2022-11-10T12:38:09.085Z,1.15
2022-11-10T12:41:02.883Z,1.40
2022-11-10T12:43:40.339Z,1.13
2022-11-10T12:46:09.642Z,0.90
2022-11-10T12:48:55.806Z,1.02
2022-11-10T12:51:30.412Z,1.00
2022-11-10T12:53:57.682Z,1.13
2022-11-10T12:56:37.408Z,1.30
2022-11-10T12:59:34.050Z,1.10
2022-11-10T13:02:07.234Z,1.00
2022-11-10T13:04:34.676Z,1.02
2022-11-10T13:07:12.949Z,1.00
2022-11-10T13:09:44.573Z,0.90
2022-11-10T13:12:11.792Z,1.00
2022-11-10T13:14:39.052Z,0.90
2022-11-10T13:17:06.796Z,1.30
2022-11-10T13:19:34.075Z,0.95
2022-11-10T13:22:01.389Z,1.17
2022-11-10T13:24:36.341Z,1.05
2022-11-10T13:27:03.589Z,1.13
2022-11-10T13:29:35.107Z,1.00
2022-11-10T13:32:08.514Z,1.00
2022-11-10T13:34:36.906Z,1.25
2022-11-10T13:37:05.078Z,1.05
2022-11-10T13:39:33.432Z,1.02
2022-11-10T13:42:17.558Z,1.00
2022-11-10T13:44:48.303Z,1.10
2022-11-10T13:47:15.661Z,0.90
2022-11-10T13:49:52.302Z,1.05
2022-11-10T13:52:22.685Z,0.95
2022-11-10T13:55:20.188Z,1.10
2022-11-10T13:58:02.247Z,1.10
2022-11-10T14:00:38.941Z,0.80
2022-11-10T14:03:07.962Z,0.95
2022-11-10T14:05:38.516Z,0.90
2022-11-10T14:08:20.112Z,0.90
2022-11-10T14:11:01.411Z,0.70
2022-11-10T14:13:55.081Z,1.15
2022-11-10T14:16:25.518Z,0.85
2022-11-10T14:18:58.695Z,0.93
2022-11-10T14:21:28.547Z,0.77
2022-11-10T14:24:11.830Z,0.90
2022-11-10T14:26:48.953Z,0.85
2022-11-10T14:29:36.113Z,1.08
2022-11-10T14:32:05.188Z,0.98
2022-11-10T14:34:33.572Z,1.00
2022-11-10T14:37:02.455Z,1.10
2022-11-10T14:39:34.610Z,0.90
2022-11-10T14:42:04.237Z,0.95
2022-11-10T14:44:32.712Z,0.80
2022-11-10T14:47:14.029Z,0.95
2022-11-10T14:49:41.384Z,1.10
2022-11-10T14:52:12.797Z,1.10
2022-11-10T14:54:44.720Z,1.27
2022-11-10T14:57:16.668Z,1.30
2022-11-10T14:59:43.976Z,1.40
2022-11-10T15:02:15.111Z,1.00
2022-11-10T15:04:45.882Z,1.00
2022-11-10T15:07:13.654Z,1.20
2022-11-10T15:09:41.995Z,1.55
2022-11-10T15:12:20.132Z,1.35
2022-11-10T15:14:47.861Z,1.25
2022-11-10T15:17:17.284Z,1.00
2022-11-10T15:19:48.627Z,1.48
2022-11-10T15:22:34.719Z,2.05
2022-11-10T15:25:08.599Z,2.28
2022-11-10T15:27:36.344Z,2.17
2022-11-10T15:30:04.024Z,1.92
2022-11-10T15:32:35.441Z,1.88
2022-11-10T15:35:35.302Z,1.60
2022-11-10T15:38:20.534Z,1.80
2022-11-10T15:40:49.635Z,1.92
2022-11-10T15:43:27.176Z,1.92
2022-11-10T15:46:02.351Z,1.73
2022-11-10T15:49:03.967Z,1.90
2022-11-10T15:51:32.037Z,2.23
2022-11-10T15:53:59.281Z,2.27
2022-11-10T15:56:26.508Z,1.98
2022-11-10T15:59:02.081Z,2.33
2022-11-10T16:01:31.387Z,2.70
2022-11-10T16:03:58.792Z,2.60
2022-11-10T16:06:27.558Z,3.53
2022-11-10T16:08:55.221Z,3.50
2022-11-10T16:11:23.473Z,3.03
2022-11-10T16:13:51.192Z,3.60
2022-11-10T16:16:19.531Z,1.90
2022-11-10T16:18:47.193Z,4.30
2022-11-10T16:21:15.711Z,4.10
2022-11-10T16:23:43.443Z,5.90
2022-11-10T16:26:17.964Z,5.40
2022-11-10T16:28:47.748Z,4.20
2022-11-10T16:31:16.160Z,2.60
2022-11-10T16:33:43.627Z,2.70
2022-11-10T16:36:31.613Z,2.93
2022-11-10T16:38:59.150Z,2.20
2022-11-10T16:41:26.769Z,4.50
2022-11-10T16:43:54.082Z,10.17
2022-11-10T16:46:29.083Z,13.80
2022-11-10T16:49:00.371Z,12.40
2022-11-10T16:51:30.041Z,10.90
2022-11-10T16:53:59.516Z,7.53
2022-11-10T16:56:27.558Z,4.00
2022-11-10T16:58:55.312Z,4.23
2022-11-10T17:01:32.934Z,5.13
2022-11-10T17:04:01.517Z,6.70
2022-11-10T17:06:29.779Z,6.77
2022-11-10T17:08:59.373Z,7.27
2022-11-10T17:11:26.784Z,8.90
2022-11-10T17:13:54.073Z,8.27
2022-11-10T17:16:21.308Z,7.97
2022-11-10T17:18:48.804Z,7.80
2022-11-10T17:21:16.168Z,8.90
2022-11-10T17:23:43.440Z,6.30
2022-11-10T17:26:12.515Z,6.30
2022-11-10T17:28:39.880Z,5.20
2022-11-10T17:31:07.408Z,6.50
2022-11-10T17:33:34.699Z,8.67
2022-11-10T17:36:04.746Z,10.37
2022-11-10T17:38:32.789Z,17.47
2022-11-10T17:41:00.338Z,25.23
2022-11-10T17:43:27.660Z,28.63
2022-11-10T17:45:54.974Z,26.67
2022-11-10T17:48:22.250Z,22.00
2022-11-10T17:50:51.656Z,20.90
2022-11-10T17:53:23.874Z,13.77
2022-11-10T17:55:51.571Z,13.07
2022-11-10T17:58:19.134Z,9.40
2022-11-10T18:00:46.571Z,9.33
2022-11-10T18:03:18.747Z,7.37
2022-11-10T18:05:46.129Z,14.03
2022-11-10T18:08:14.204Z,13.43
2022-11-10T18:10:47.375Z,11.13
2022-11-10T18:13:14.592Z,13.70
2022-11-10T18:15:42.849Z,9.20
2022-11-10T18:18:11.593Z,9.93
2022-11-10T18:20:38.929Z,9.27
2022-11-10T18:23:08.323Z,8.43
2022-11-10T18:25:36.023Z,9.90
2022-11-10T18:28:03.252Z,22.47
2022-11-10T18:30:34.875Z,31.07
2022-11-10T18:33:03.203Z,19.43
2022-11-10T18:35:30.628Z,27.23
2022-11-10T18:38:00.922Z,46.93
2022-11-10T18:40:28.129Z,48.80
2022-11-10T18:43:03.137Z,40.03
2022-11-10T18:45:34.799Z,40.83
2022-11-10T18:48:05.895Z,41.97
2022-11-10T18:50:33.732Z,32.83
2022-11-10T18:53:01.036Z,27.43
2022-11-10T18:55:28.246Z,25.50
2022-11-10T18:57:55.473Z,28.73
2022-11-10T19:00:23.205Z,29.30
2022-11-10T19:02:50.447Z,26.93
2022-11-10T19:05:18.284Z,26.83
2022-11-10T19:07:45.785Z,27.10
2022-11-10T19:10:13.089Z,23.33
2022-11-10T19:12:40.380Z,18.03
2022-11-10T19:15:08.769Z,21.03
2022-11-10T19:17:36.321Z,27.83
2022-11-10T19:20:03.664Z,29.47
2022-11-10T19:22:30.927Z,29.40
2022-11-10T19:25:08.154Z,26.70
2022-11-10T19:27:36.469Z,25.10
2022-11-10T19:30:04.020Z,24.13
2022-11-10T19:32:31.526Z,23.57
2022-11-10T19:34:58.805Z,17.97
2022-11-10T19:37:28.666Z,18.53
2022-11-10T19:39:59.380Z,18.87
2022-11-10T19:42:29.638Z,19.83
2022-11-10T19:44:57.959Z,19.20
2022-11-10T19:47:26.144Z,19.73
2022-11-10T19:49:53.626Z,20.37
2022-11-10T19:52:20.881Z,16.80
2022-11-10T19:54:48.790Z,17.37
2022-11-10T19:57:16.007Z,17.20
2022-11-10T19:59:43.251Z,16.07
2022-11-10T20:02:13.375Z,18.27
2022-11-10T20:05:00.868Z,18.17
2022-11-10T20:07:46.912Z,18.87
2022-11-10T20:10:14.134Z,19.10
2022-11-10T20:12:41.437Z,18.93
2022-11-10T20:15:09.165Z,17.00
2022-11-10T20:17:36.418Z,15.57
2022-11-10T20:20:03.678Z,13.00
2022-11-10T20:22:30.948Z,10.87
2022-11-10T20:24:58.237Z,5.60
2022-11-10T20:27:25.551Z,4.13
2022-11-10T20:29:52.914Z,3.40
2022-11-10T20:32:20.335Z,5.63
2022-11-10T20:34:47.519Z,10.10
2022-11-10T20:37:14.838Z,18.23
2022-11-10T20:39:42.272Z,15.03
2022-11-10T20:42:11.732Z,9.53
2022-11-10T20:44:38.962Z,6.70
2022-11-10T20:47:06.539Z,5.93
2022-11-10T20:49:34.198Z,3.80
2022-11-10T20:52:01.479Z,5.60
2022-11-10T20:54:28.967Z,8.43
2022-11-10T20:56:56.345Z,12.30
2022-11-10T20:59:24.008Z,16.43
2022-11-10T21:01:51.392Z,12.70
2022-11-10T21:04:18.623Z,17.87
2022-11-10T21:06:46.962Z,12.10
2022-11-10T21:09:14.553Z,9.17
2022-11-10T21:12:00.700Z,16.50
2022-11-10T21:14:28.035Z,18.47
2022-11-10T21:16:57.024Z,18.63
2022-11-10T21:19:24.448Z,14.70
2022-11-10T21:21:52.357Z,18.33
2022-11-10T21:24:19.824Z,26.37
2022-11-10T21:26:47.823Z,22.30
2022-11-10T21:29:15.253Z,20.70
2022-11-10T21:31:42.707Z,17.90
2022-11-10T21:34:10.002Z,14.57
2022-11-10T21:36:37.471Z,14.00
2022-11-10T21:39:05.224Z,14.13
2022-11-10T21:41:32.981Z,15.80
2022-11-10T21:44:00.236Z,16.10
2022-11-10T21:46:27.884Z,9.50
2022-11-10T21:48:55.161Z,11.10
2022-11-10T21:51:22.473Z,7.53
2022-11-10T21:53:49.853Z,9.33
2022-11-10T21:56:17.577Z,16.90
2022-11-10T21:58:44.803Z,18.80
2022-11-10T22:01:16.122Z,18.53
2022-11-10T22:03:43.946Z,14.70
2022-11-10T22:06:13.419Z,14.77
2022-11-10T22:08:41.389Z,15.20
2022-11-10T22:11:38.465Z,14.57
2022-11-10T22:14:30.982Z,15.73
2022-11-10T22:17:17.289Z,15.23
2022-11-10T22:19:44.893Z,14.97
2022-11-10T22:22:14.341Z,13.70
2022-11-10T22:24:41.906Z,11.70
2022-11-10T22:27:09.539Z,12.23
2022-11-10T22:29:36.789Z,12.50
2022-11-10T22:32:04.163Z,12.70
2022-11-10T22:34:31.362Z,11.13
2022-11-10T22:36:59.809Z,6.53
2022-11-10T22:39:46.428Z,7.20
2022-11-10T22:42:32.324Z,9.60
2022-11-10T22:44:59.632Z,6.43
2022-11-10T22:47:46.858Z,4.70
2022-11-10T22:50:14.734Z,6.33
2022-11-10T22:52:42.278Z,9.63
2022-11-10T22:55:09.666Z,10.00
2022-11-10T22:57:36.903Z,13.87
2022-11-10T23:00:04.894Z,14.57
2022-11-10T23:02:32.134Z,9.20
2022-11-10T23:04:59.539Z,10.17
2022-11-10T23:07:26.809Z,15.30
2022-11-10T23:09:54.050Z,16.33
2022-11-10T23:12:21.510Z,10.27
2022-11-10T23:14:48.818Z,7.47
2022-11-10T23:17:16.050Z,5.97
2022-11-10T23:19:43.252Z,6.80
2022-11-10T23:22:11.046Z,5.43
2022-11-10T23:24:38.443Z,5.97
2022-11-10T23:27:05.687Z,6.73
2022-11-10T23:29:32.881Z,4.93
2022-11-10T23:32:00.194Z,6.80
2022-11-10T23:34:27.710Z,6.90
2022-11-10T23:36:54.970Z,8.80
2022-11-10T23:39:22.202Z,9.13
2022-11-10T23:41:49.434Z,9.47
2022-11-10T23:44:16.810Z,8.37
2022-11-10T23:46:44.789Z,8.73
2022-11-10T23:49:11.985Z,8.20
2022-11-10T23:51:39.404Z,8.40
2022-11-10T23:54:06.932Z,7.23
2022-11-10T23:56:34.192Z,7.53
2022-11-10T23:59:01.521Z,7.47
